Time;durP1;ratioP1;P1;durP2;ratioP2;P2;SDS_P1;SDS_P2;PMS_P1;PMS_P2;Temp;Humidity;BMP_temperature;BMP_pressure;BME280_temperature;BME280_humidity;BME280_pressure;Samples;Min_cycle;Max_cycle;Signal;HPM_P1;HPM_P2
2021/04/06 00:00:41;;;;;;;0.38;0.20;;;8.30;53.00;;;;;;4994844;28;20038;-79
2021/04/06 00:03:08;;;;;;;0.00;0.00;;;8.30;53.00;;;;;;4995116;28;20321;-79
2021/04/06 00:05:35;;;;;;;0.55;0.20;;;8.30;53.00;;;;;;4995335;28;20022;-80
2021/04/06 00:08:01;;;;;;;1.85;0.75;;;8.20;53.00;;;;;;4995045;28;20482;-79
2021/04/06 00:10:35;;;;;;;0.00;0.00;;;8.20;53.00;;;;;;4995013;28;20030;-80
2021/04/06 00:13:01;;;;;;;0.00;0.00;;;8.10;53.10;;;;;;4993486;28;20061;-80
2021/04/06 00:15:28;;;;;;;0.98;0.15;;;8.10;53.30;;;;;;4978401;28;20038;-80
2021/04/06 00:17:57;;;;;;;0.00;0.00;;;8.00;53.30;;;;;;4994640;28;20034;-79
2021/04/06 00:20:23;;;;;;;0.20;0.10;;;7.90;53.50;;;;;;4995039;28;20045;-80
2021/04/06 00:22:50;;;;;;;0.10;0.08;;;7.90;53.50;;;;;;4994942;28;20037;-79
2021/04/06 00:25:23;;;;;;;0.13;0.10;;;7.90;53.60;;;;;;4994114;28;20031;-80
2021/04/06 00:27:51;;;;;;;4.03;0.08;;;7.80;53.60;;;;;;5011843;28;20046;-80
2021/04/06 00:30:44;;;;;;;0.15;0.00;;;7.90;53.60;;;;;;4994429;28;20034;-80
2021/04/06 00:33:15;;;;;;;0.00;0.00;;;7.80;53.60;;;;;;4980739;28;20038;-79
2021/04/06 00:35:41;;;;;;;0.08;0.08;;;7.90;53.80;;;;;;4994953;28;20033;-80
2021/04/06 00:38:11;;;;;;;0.00;0.00;;;7.80;54.00;;;;;;4994772;28;20518;-80
2021/04/06 00:40:40;;;;;;;0.08;0.00;;;7.80;54.10;;;;;;4994720;28;20037;-79
2021/04/06 00:43:06;;;;;;;0.20;0.20;;;7.70;54.20;;;;;;4993832;28;20029;-79
2021/04/06 00:45:35;;;;;;;0.28;0.20;;;7.70;54.30;;;;;;4993803;28;20038;-80
2021/04/06 00:48:11;;;;;;;0.30;0.20;;;7.70;54.40;;;;;;4994203;28;20018;-79
2021/04/06 00:50:38;;;;;;;0.63;0.13;;;7.60;54.40;;;;;;4995803;28;20022;-80
2021/04/06 00:53:04;;;;;;;0.38;0.38;;;7.60;54.50;;;;;;4995857;28;20402;-79
2021/04/06 00:55:38;;;;;;;0.00;0.00;;;7.60;54.60;;;;;;4994502;28;20034;-81
2021/04/06 00:58:11;;;;;;;0.38;0.00;;;7.50;55.30;;;;;;4994663;28;20038;-80
2021/04/06 01:00:37;;;;;;;0.20;0.10;;;7.50;54.90;;;;;;4993356;28;20042;-80
2021/04/06 01:03:12;;;;;;;0.80;0.45;;;7.50;54.90;;;;;;4994445;28;20494;-81
2021/04/06 01:06:00;;;;;;;0.17;0.17;;;7.50;54.90;;;;;;4994348;28;20029;-80
2021/04/06 01:08:35;;;;;;;0.03;0.00;;;7.40;54.90;;;;;;4994470;28;20039;-79
2021/04/06 01:11:01;;;;;;;0.10;0.10;;;7.40;55.10;;;;;;4994403;28;20033;-79
2021/04/06 01:13:27;;;;;;;1.60;0.13;;;7.30;55.20;;;;;;4993795;28;20392;-79
2021/04/06 01:15:54;;;;;;;0.00;0.00;;;7.30;55.20;;;;;;4976602;28;20038;-79
2021/04/06 01:18:24;;;;;;;0.20;0.08;;;7.30;55.30;;;;;;4993953;28;20509;-79
2021/04/06 01:20:51;;;;;;;0.10;0.10;;;7.20;55.40;;;;;;4993814;28;20510;-79
2021/04/06 01:23:20;;;;;;;1.45;0.22;;;7.20;55.40;;;;;;4994072;28;20018;-79
2021/04/06 01:25:50;;;;;;;0.00;0.00;;;7.20;55.40;;;;;;4978647;28;20033;-80
2021/04/06 01:28:16;;;;;;;1.73;0.35;;;7.20;55.40;;;;;;4990387;28;20030;-80
2021/04/06 01:30:45;;;;;;;0.10;0.05;;;7.10;55.50;;;;;;4994428;28;20042;-81
2021/04/06 01:33:12;;;;;;;0.85;0.00;;;7.00;55.60;;;;;;4995023;28;20034;-80
2021/04/06 01:35:40;;;;;;;0.70;0.10;;;7.00;55.70;;;;;;4993442;28;20054;-80
2021/04/06 01:38:07;;;;;;;0.53;0.00;;;7.00;55.70;;;;;;4993397;28;20041;-79
2021/04/06 01:40:33;;;;;;;0.00;0.00;;;7.00;55.80;;;;;;4993540;28;20046;-80
2021/04/06 01:42:59;;;;;;;1.08;0.57;;;7.00;55.80;;;;;;4993866;28;20037;-80
2021/04/06 01:45:25;;;;;;;0.00;0.00;;;6.90;55.80;;;;;;4992552;28;20042;-80
2021/04/06 01:47:51;;;;;;;0.00;0.00;;;6.90;55.80;;;;;;4993532;28;20022;-79
2021/04/06 01:50:17;;;;;;;0.00;0.00;;;6.90;55.80;;;;;;4993416;28;20030;-80
2021/04/06 01:52:46;;;;;;;0.13;0.10;;;6.90;56.00;;;;;;4993454;28;20045;-80
2021/04/06 01:55:16;;;;;;;0.30;0.10;;;6.80;56.00;;;;;;4989715;28;20046;-80
2021/04/06 01:57:45;;;;;;;0.22;0.20;;;6.80;56.00;;;;;;4994306;28;20034;-79
2021/04/06 02:00:30;;;;;;;0.73;0.20;;;6.80;56.00;;;;;;4992259;28;20046;-79
2021/04/06 02:02:58;;;;;;;0.20;0.20;;;6.80;56.00;;;;;;4974602;28;20039;-79
2021/04/06 02:05:24;;;;;;;0.00;0.00;;;6.70;56.00;;;;;;4979748;28;20042;-80
2021/04/06 02:07:51;;;;;;;0.47;0.32;;;6.70;56.00;;;;;;4985301;28;20026;-80
2021/04/06 02:10:17;;;;;;;0.85;0.10;;;6.60;56.10;;;;;;4990157;28;20483;-81
2021/04/06 02:12:44;;;;;;;0.22;0.10;;;6.60;56.20;;;;;;4971357;28;20038;-81
2021/04/06 02:15:11;;;;;;;0.20;0.20;;;6.60;56.30;;;;;;4987043;28;20026;-80
2021/04/06 02:17:50;;;;;;;2.47;0.23;;;6.50;56.30;;;;;;4986993;28;20421;-80
2021/04/06 02:20:24;;;;;;;0.25;0.00;;;6.50;56.30;;;;;;4988132;28;20030;-81
2021/04/06 02:22:54;;;;;;;0.03;0.00;;;6.50;56.40;;;;;;4972858;28;20035;-79
2021/04/06 02:25:20;;;;;;;0.08;0.00;;;6.50;56.40;;;;;;4991013;28;20034;-80
2021/04/06 02:27:47;;;;;;;0.73;0.28;;;6.40;56.40;;;;;;4987845;28;20468;-79
2021/04/06 02:30:13;;;;;;;0.30;0.10;;;6.40;56.50;;;;;;4986395;28;20042;-79
2021/04/06 02:32:39;;;;;;;0.57;0.20;;;6.40;56.50;;;;;;4987277;28;20030;-80
2021/04/06 02:35:07;;;;;;;0.30;0.10;;;6.30;56.50;;;;;;4988681;28;20046;-79
2021/04/06 02:37:35;;;;;;;0.00;0.00;;;6.30;56.60;;;;;;4988547;28;20041;-80
2021/04/06 02:40:05;;;;;;;0.17;0.17;;;6.20;56.60;;;;;;4989131;28;20212;-79
2021/04/06 02:42:33;;;;;;;4.10;0.65;;;6.20;56.70;;;;;;4990126;28;20766;-79
2021/04/06 02:45:17;;;;;;;0.27;0.10;;;6.20;56.70;;;;;;4993774;28;20046;-80
2021/04/06 02:47:47;;;;;;;0.00;0.00;;;6.10;56.80;;;;;;4993013;28;20035;-79
2021/04/06 02:50:24;;;;;;;0.10;0.03;;;6.10;56.90;;;;;;4992672;28;20491;-79
2021/04/06 02:52:50;;;;;;;4.83;0.30;;;6.00;56.90;;;;;;4977849;28;20034;-79
2021/04/06 02:55:16;;;;;;;1.33;0.30;;;6.00;56.90;;;;;;4991666;28;20038;-81
2021/04/06 02:57:43;;;;;;;0.57;0.40;;;6.00;57.00;;;;;;4992379;28;20023;-81
2021/04/06 03:00:10;;;;;;;1.30;0.40;;;6.00;57.10;;;;;;4992061;28;20364;-80
2021/04/06 03:02:40;;;;;;;0.00;0.00;;;5.90;57.00;;;;;;4993709;28;20403;-79
2021/04/06 03:05:07;;;;;;;0.73;0.47;;;5.90;57.10;;;;;;4993630;28;20030;-79
2021/04/06 03:07:39;;;;;;;3.03;0.10;;;5.90;57.00;;;;;;4993690;28;20030;-79
2021/04/06 03:10:06;;;;;;;0.10;0.10;;;5.90;57.00;;;;;;4980080;28;20034;-79
2021/04/06 03:12:32;;;;;;;0.10;0.08;;;5.90;57.10;;;;;;4995979;28;20497;-79
2021/04/06 03:14:59;;;;;;;0.33;0.17;;;5.90;57.10;;;;;;4996334;28;20039;-80
2021/04/06 03:17:25;;;;;;;6.13;0.57;;;5.90;57.20;;;;;;4995741;28;20030;-79
2021/04/06 03:19:58;;;;;;;1.17;0.20;;;5.80;57.10;;;;;;4997491;28;20037;-79
2021/04/06 03:22:28;;;;;;;0.10;0.00;;;5.80;57.10;;;;;;4995614;28;20046;-80
2021/04/06 03:24:54;;;;;;;1.20;0.40;;;5.80;57.20;;;;;;4996496;28;20491;-80
2021/04/06 03:27:30;;;;;;;1.90;0.23;;;5.70;57.20;;;;;;4996986;28;20383;-79
2021/04/06 03:29:59;;;;;;;0.00;0.00;;;5.70;57.30;;;;;;4997448;28;20042;-79
2021/04/06 03:32:25;;;;;;;0.10;0.03;;;5.70;57.30;;;;;;4996650;28;20038;-79
2021/04/06 03:34:52;;;;;;;1.63;1.17;;;5.70;57.40;;;;;;4996065;28;20026;-79
2021/04/06 03:37:19;;;;;;;0.33;0.10;;;5.70;57.30;;;;;;4995225;28;20495;-79
2021/04/06 03:39:46;;;;;;;3.73;0.47;;;5.60;57.90;;;;;;4995474;28;20049;-80
2021/04/06 03:42:22;;;;;;;1.20;0.20;;;5.60;57.30;;;;;;4995768;28;20388;-79
2021/04/06 03:44:48;;;;;;;0.20;0.07;;;5.60;57.40;;;;;;4995677;28;20193;-79
2021/04/06 03:47:14;;;;;;;3.50;0.30;;;5.60;57.40;;;;;;4995305;28;20041;-79
2021/04/06 03:49:46;;;;;;;0.23;0.13;;;5.60;57.50;;;;;;4996792;28;20033;-80
2021/04/06 03:52:12;;;;;;;0.37;0.00;;;5.50;57.50;;;;;;4990826;28;20041;-79
2021/04/06 03:54:42;;;;;;;1.60;0.60;;;5.50;57.50;;;;;;4996470;28;20033;-79
2021/04/06 04:00:00;;;;;;;0.93;0.10;;;5.50;57.50;;;;;;4992040;28;20038;-80
2021/04/06 04:02:26;;;;;;;0.10;0.00;;;5.50;57.50;;;;;;4996154;28;20046;-80
2021/04/06 04:04:53;;;;;;;0.73;0.40;;;5.50;57.50;;;;;;4995431;28;20026;-80
2021/04/06 04:07:19;;;;;;;0.57;0.40;;;5.50;57.50;;;;;;4994554;28;20033;-80
2021/04/06 04:09:45;;;;;;;3.30;0.87;;;5.50;57.50;;;;;;4996173;28;20022;-79
2021/04/06 04:12:11;;;;;;;0.10;0.10;;;5.50;57.50;;;;;;4994945;28;20042;-79
2021/04/06 04:14:38;;;;;;;0.23;0.20;;;5.50;57.50;;;;;;4995330;28;20029;-79
2021/04/06 04:17:04;;;;;;;0.20;0.03;;;5.40;57.50;;;;;;4994819;28;20050;-79
2021/04/06 04:19:30;;;;;;;1.17;0.30;;;5.40;57.50;;;;;;4995864;28;20030;-79
2021/04/06 04:21:56;;;;;;;0.20;0.20;;;5.40;57.50;;;;;;4995698;28;20054;-79
2021/04/06 04:24:22;;;;;;;0.40;0.30;;;5.40;57.50;;;;;;4995896;28;20034;-79
2021/04/06 04:26:48;;;;;;;0.20;0.00;;;5.40;57.50;;;;;;4996179;28;20034;-79
2021/04/06 04:29:14;;;;;;;0.20;0.20;;;5.40;57.50;;;;;;4996557;28;20495;-79
2021/04/06 04:31:44;;;;;;;1.20;0.53;;;5.40;57.50;;;;;;4996004;28;20054;-80
2021/04/06 04:34:11;;;;;;;0.43;0.20;;;5.40;57.60;;;;;;4995285;28;20026;-80
2021/04/06 04:36:37;;;;;;;13.13;0.77;;;5.40;57.60;;;;;;4996596;28;20030;-80
2021/04/06 04:39:04;;;;;;;0.53;0.20;;;5.40;57.60;;;;;;4995738;28;20035;-79
2021/04/06 04:41:30;;;;;;;0.23;0.20;;;5.40;57.60;;;;;;4996106;28;20039;-79
2021/04/06 04:43:56;;;;;;;0.20;0.07;;;5.40;57.70;;;;;;4996563;28;20495;-79
2021/04/06 04:46:23;;;;;;;0.10;0.00;;;5.40;57.60;;;;;;4994316;28;20043;-81
2021/04/06 04:48:49;;;;;;;1.50;0.33;;;5.40;57.60;;;;;;4961449;28;20480;-80
2021/04/06 04:51:15;;;;;;;1.03;0.40;;;5.40;57.60;;;;;;4991106;28;20038;-79
2021/04/06 04:53:41;;;;;;;2.43;0.23;;;5.40;57.60;;;;;;4995431;28;20030;-80
2021/04/06 04:56:07;;;;;;;0.20;0.20;;;5.30;57.60;;;;;;4995670;28;20023;-80
2021/04/06 04:58:33;;;;;;;0.47;0.23;;;5.30;57.60;;;;;;4994431;28;20507;-79
2021/04/06 05:00:59;;;;;;;0.30;0.10;;;5.30;57.70;;;;;;4994214;28;20045;-80
2021/04/06 05:03:25;;;;;;;0.30;0.10;;;5.30;57.70;;;;;;4995481;28;20030;-80
2021/04/06 05:05:51;;;;;;;0.53;0.30;;;5.30;57.70;;;;;;4995382;28;20022;-80
2021/04/06 05:08:18;;;;;;;0.77;0.30;;;5.30;57.80;;;;;;4995074;28;20088;-80
2021/04/06 05:10:44;;;;;;;2.03;0.47;;;5.30;57.80;;;;;;4994803;28;20502;-79
2021/04/06 05:13:10;;;;;;;0.40;0.20;;;5.30;57.80;;;;;;4994789;28;20029;-79
2021/04/06 05:15:36;;;;;;;3.93;1.07;;;5.30;57.90;;;;;;4993467;28;20502;-80
2021/04/06 05:18:02;;;;;;;0.10;0.00;;;5.20;57.90;;;;;;4994098;28;20053;-80
2021/04/06 05:20:28;;;;;;;0.10;0.00;;;5.20;57.90;;;;;;4995239;28;20030;-79
2021/04/06 05:22:55;;;;;;;1.87;0.70;;;5.20;57.90;;;;;;4994854;28;20065;-80
2021/04/06 05:25:21;;;;;;;0.63;0.50;;;5.10;57.90;;;;;;4994176;28;20030;-80
2021/04/06 05:27:47;;;;;;;2.27;0.53;;;5.10;57.90;;;;;;4995561;28;20531;-80
2021/04/06 05:30:14;;;;;;;0.30;0.20;;;5.10;58.00;;;;;;4992668;28;20038;-80
2021/04/06 05:32:40;;;;;;;1.40;0.17;;;5.10;58.00;;;;;;4977570;28;20030;-79
2021/04/06 05:35:07;;;;;;;1.20;0.77;;;5.10;58.10;;;;;;4993988;28;20057;-80
2021/04/06 05:37:33;;;;;;;0.57;0.33;;;5.00;58.10;;;;;;4993442;28;20506;-80
2021/04/06 05:39:59;;;;;;;2.03;0.27;;;5.00;58.10;;;;;;4992975;28;20042;-80
2021/04/06 05:42:25;;;;;;;0.50;0.17;;;5.00;58.10;;;;;;4994731;28;20067;-80
2021/04/06 05:44:51;;;;;;;0.87;0.50;;;5.00;58.20;;;;;;4993363;28;20049;-79
2021/04/06 05:47:35;;;;;;;0.67;0.13;;;5.00;58.10;;;;;;4994344;28;20034;-80
2021/04/06 05:50:03;;;;;;;0.10;0.00;;;5.00;58.10;;;;;;4980276;28;20030;-80
2021/04/06 05:52:32;;;;;;;11.70;0.30;;;5.00;58.10;;;;;;4994280;28;20026;-81
2021/04/06 05:54:58;;;;;;;4.90;1.53;;;5.00;58.10;;;;;;4990848;28;20033;-81
2021/04/06 05:57:25;;;;;;;1.50;0.60;;;5.00;58.10;;;;;;4973931;28;20046;-79
2021/04/06 05:59:51;;;;;;;25.93;2.07;;;5.00;58.10;;;;;;4986669;28;20030;-80
2021/04/06 06:02:17;;;;;;;11.63;1.30;;;5.00;58.10;;;;;;4992814;28;20046;-79
2021/04/06 06:04:43;;;;;;;1.90;0.47;;;5.00;58.10;;;;;;4994145;28;20030;-81
2021/04/06 06:07:12;;;;;;;0.63;0.43;;;5.00;58.10;;;;;;4992386;28;20031;-81
2021/04/06 06:09:38;;;;;;;1.47;0.20;;;5.10;58.10;;;;;;4994068;28;20026;-79
2021/04/06 06:12:09;;;;;;;0.70;0.30;;;5.20;57.90;;;;;;4992888;28;20521;-79
2021/04/06 06:14:43;;;;;;;0.65;0.40;;;5.30;57.80;;;;;;4993129;28;20385;-80
2021/04/06 06:17:16;;;;;;;12.50;1.00;;;5.30;57.80;;;;;;4992718;28;20519;-81
2021/04/06 06:19:43;;;;;;;6.90;0.47;;;5.40;57.70;;;;;;4993836;28;20045;-79
2021/04/06 06:22:17;;;;;;;1.87;0.43;;;5.70;57.40;;;;;;4992021;28;20053;-80
2021/04/06 06:24:46;;;;;;;1.55;0.55;;;6.00;57.00;;;;;;4995710;28;20034;-79
2021/04/06 06:27:38;;;;;;;0.23;0.20;;;6.50;56.50;;;;;;4992832;28;20517;-80
2021/04/06 06:30:32;;;;;;;0.10;0.00;;;6.90;56.00;;;;;;4993782;28;20042;-81
2021/04/06 06:33:19;;;;;;;2.17;0.10;;;7.30;55.50;;;;;;4993923;28;20034;-80
2021/04/06 06:35:49;;;;;;;1.10;0.30;;;7.70;55.10;;;;;;4992451;28;20037;-81
2021/04/06 06:38:34;;;;;;;2.08;0.32;;;8.00;54.80;;;;;;4992921;28;20041;-81
2021/04/06 06:41:13;;;;;;;0.55;0.10;;;8.20;54.60;;;;;;4979347;28;20038;-80
2021/04/06 06:43:44;;;;;;;0.68;0.20;;;8.30;54.60;;;;;;4992646;28;20045;-80
2021/04/06 06:46:20;;;;;;;0.70;0.28;;;8.30;54.60;;;;;;4992355;28;20057;-81
2021/04/06 06:48:57;;;;;;;0.68;0.30;;;8.40;54.70;;;;;;4993453;28;20038;-80
2021/04/06 06:51:49;;;;;;;0.70;0.47;;;8.50;54.80;;;;;;4993948;28;20049;-81
2021/04/06 06:54:15;;;;;;;0.40;0.15;;;8.60;54.70;;;;;;4990636;28;20042;-81
2021/04/06 06:56:42;;;;;;;2.00;0.63;;;8.70;54.60;;;;;;4992445;28;20023;-80
2021/04/06 06:59:08;;;;;;;3.15;0.90;;;8.70;54.50;;;;;;4992637;28;20043;-80
2021/04/06 07:01:36;;;;;;;1.70;0.35;;;8.80;54.50;;;;;;4992129;28;20400;-81
2021/04/06 07:04:03;;;;;;;1.65;0.47;;;8.80;54.50;;;;;;4992589;28;20042;-81
2021/04/06 07:06:29;;;;;;;0.57;0.28;;;8.90;54.50;;;;;;4992364;28;20484;-80
2021/04/06 07:08:55;;;;;;;3.08;0.50;;;8.90;54.50;;;;;;4992580;28;20038;-81
2021/04/06 07:11:22;;;;;;;5.47;0.40;;;9.00;54.50;;;;;;4993650;28;20030;-80
2021/04/06 07:13:53;;;;;;;1.48;0.57;;;9.10;54.40;;;;;;4992608;28;20042;-81
2021/04/06 07:16:20;;;;;;;0.40;0.20;;;9.30;54.20;;;;;;4992511;28;20045;-81
2021/04/06 07:18:49;;;;;;;0.70;0.20;;;9.40;54.00;;;;;;4993181;28;20022;-81
2021/04/06 07:21:17;;;;;;;3.05;0.50;;;9.50;53.80;;;;;;4992521;28;20031;-81
2021/04/06 07:23:55;;;;;;;2.08;0.57;;;9.50;53.60;;;;;;4993314;28;20065;-82
2021/04/06 07:26:21;;;;;;;0.40;0.25;;;9.60;53.60;;;;;;4993253;28;20022;-80
2021/04/06 07:28:47;;;;;;;0.10;0.00;;;9.70;53.40;;;;;;4992317;28;20028;-80
2021/04/06 07:31:15;;;;;;;0.60;0.35;;;9.80;53.20;;;;;;4992455;28;20034;-80
2021/04/06 07:33:41;;;;;;;2.17;0.25;;;9.90;53.20;;;;;;4993123;28;20037;-80
2021/04/06 07:36:09;;;;;;;0.20;0.10;;;10.00;52.90;;;;;;4972871;28;20487;-80
2021/04/06 07:38:40;;;;;;;0.52;0.10;;;10.20;52.80;;;;;;4984867;28;20018;-80
2021/04/06 07:41:06;;;;;;;3.35;0.45;;;10.30;52.60;;;;;;4992171;28;20030;-80
2021/04/06 07:43:32;;;;;;;1.40;0.47;;;10.50;52.30;;;;;;4991438;28;20042;-80
2021/04/06 07:45:59;;;;;;;0.30;0.20;;;10.70;52.10;;;;;;4974758;28;20035;-80
2021/04/06 07:48:49;;;;;;;0.35;0.10;;;10.90;51.80;;;;;;4992904;28;20041;-81
2021/04/06 07:51:21;;;;;;;1.25;0.50;;;11.10;51.50;;;;;;4976149;28;20034;-80
2021/04/06 07:54:03;;;;;;;1.15;0.30;;;11.40;51.20;;;;;;4992554;28;20063;-81
2021/04/06 07:57:01;;;;;;;2.20;0.75;;;11.60;51.00;;;;;;4996718;28;20030;-82
2021/04/06 07:59:27;;;;;;;0.30;0.10;;;11.90;50.60;;;;;;4996793;28;20030;-81
2021/04/06 08:01:56;;;;;;;0.90;0.25;;;12.10;50.40;;;;;;4995795;28;20038;-80
2021/04/06 08:04:24;;;;;;;1.40;0.13;;;12.30;50.20;;;;;;4995555;28;20124;-81
2021/04/06 08:06:51;;;;;;;0.35;0.15;;;12.40;50.10;;;;;;4995259;28;20476;-81
2021/04/06 08:09:43;;;;;;;1.15;0.17;;;12.60;49.70;;;;;;4995413;28;20034;-81
2021/04/06 08:12:29;;;;;;;1.23;0.43;;;12.80;49.50;;;;;;4995244;28;20054;-81
2021/04/06 08:15:01;;;;;;;3.35;0.43;;;12.70;48.90;;;;;;4995310;28;20030;-80
2021/04/06 08:17:27;;;;;;;0.65;0.00;;;12.50;49.10;;;;;;4994485;28;20049;-80
2021/04/06 08:19:58;;;;;;;0.50;0.20;;;12.50;49.30;;;;;;4996396;28;20463;-82
2021/04/06 08:22:26;;;;;;;1.30;0.30;;;12.60;49.30;;;;;;4976146;28;20065;-81
2021/04/06 08:25:12;;;;;;;0.65;0.30;;;12.70;49.20;;;;;;4961448;28;20065;-81
2021/04/06 08:27:38;;;;;;;0.30;0.20;;;12.80;49.00;;;;;;4995888;28;20395;-80
2021/04/06 08:30:18;;;;;;;1.45;0.35;;;12.90;49.00;;;;;;4994177;28;20031;-81
2021/04/06 08:33:00;;;;;;;0.63;0.30;;;12.90;48.90;;;;;;4996195;28;20053;-80
2021/04/06 08:38:26;;;;;;;1.10;0.38;;;13.40;48.40;;;;;;4996697;28;20043;-81
2021/04/06 08:40:56;;;;;;;1.60;0.30;;;13.80;48.00;;;;;;4981796;28;20027;-81
2021/04/06 08:43:32;;;;;;;0.45;0.03;;;13.90;47.50;;;;;;4993715;28;20045;-80
2021/04/06 08:46:00;;;;;;;3.00;0.95;;;13.90;47.40;;;;;;4993119;28;20035;-81
2021/04/06 08:51:20;;;;;;;0.10;0.00;;;13.60;47.60;;;;;;4993332;28;20031;-81
2021/04/06 08:53:47;;;;;;;0.32;0.00;;;13.40;47.70;;;;;;4995745;28;20027;-80
2021/04/06 08:56:16;;;;;;;5.45;0.70;;;13.40;47.80;;;;;;4994557;28;20037;-81
2021/04/06 08:58:42;;;;;;;0.68;0.17;;;13.20;47.50;;;;;;4995193;28;20049;-81
2021/04/06 09:01:08;;;;;;;0.52;0.10;;;13.10;47.70;;;;;;4961120;28;20365;-80
2021/04/06 09:03:35;;;;;;;0.38;0.10;;;13.00;47.70;;;;;;4995463;28;20510;-80
2021/04/06 09:06:08;;;;;;;3.75;0.55;;;12.90;47.90;;;;;;4995720;28;20038;-80
2021/04/06 09:08:48;;;;;;;0.25;0.08;;;12.80;47.90;;;;;;4995847;28;20403;-80
2021/04/06 09:11:19;;;;;;;0.70;0.13;;;12.80;47.80;;;;;;4995787;28;20042;-81
2021/04/06 09:13:46;;;;;;;0.30;0.10;;;12.90;47.70;;;;;;4979904;28;20042;-80
2021/04/06 09:16:13;;;;;;;0.55;0.13;;;12.80;47.40;;;;;;4988887;28;20034;-82
2021/04/06 09:18:39;;;;;;;0.75;0.28;;;12.70;47.20;;;;;;4995589;28;20042;-80
2021/04/06 09:21:06;;;;;;;0.28;0.13;;;12.50;47.30;;;;;;4995144;28;20399;-80
2021/04/06 09:23:34;;;;;;;1.60;0.40;;;12.40;47.40;;;;;;4993737;28;20038;-80
2021/04/06 09:26:05;;;;;;;0.20;0.10;;;12.40;47.40;;;;;;4995070;28;20098;-80
2021/04/06 09:28:31;;;;;;;0.28;0.10;;;12.40;47.30;;;;;;4993287;28;20034;-82
2021/04/06 09:30:57;;;;;;;1.15;0.50;;;12.40;47.20;;;;;;4992683;28;20494;-80
2021/04/06 09:33:23;;;;;;;0.20;0.10;;;12.30;47.00;;;;;;4974477;28;20518;-80
2021/04/06 09:35:51;;;;;;;0.47;0.40;;;12.10;47.10;;;;;;4986676;28;20511;-80
2021/04/06 09:38:23;;;;;;;1.60;0.40;;;12.00;47.10;;;;;;4995306;28;20053;-80
2021/04/06 09:40:49;;;;;;;0.03;0.00;;;11.80;46.50;;;;;;4976029;28;20586;-80
2021/04/06 09:43:15;;;;;;;0.03;0.00;;;11.70;46.20;;;;;;4992561;28;20053;-80
2021/04/06 09:45:41;;;;;;;0.00;0.00;;;11.50;46.20;;;;;;4993089;28;20042;-80
2021/04/06 09:48:11;;;;;;;1.20;0.00;;;11.40;46.30;;;;;;4993215;28;20050;-80
2021/04/06 09:50:37;;;;;;;0.35;0.08;;;11.40;46.40;;;;;;4993684;28;20025;-80
2021/04/06 09:53:14;;;;;;;0.15;0.13;;;11.60;46.30;;;;;;4993451;28;20063;-82
2021/04/06 09:55:40;;;;;;;0.13;0.13;;;11.80;46.00;;;;;;4993402;28;20139;-80
2021/04/06 09:58:06;;;;;;;0.70;0.15;;;11.90;45.80;;;;;;4976031;28;20057;-81
2021/04/06 10:00:33;;;;;;;0.30;0.10;;;11.90;45.60;;;;;;4992623;28;20510;-81
2021/04/06 10:03:12;;;;;;;5.50;0.22;;;12.00;45.60;;;;;;4994255;28;20396;-81
2021/04/06 10:05:42;;;;;;;0.38;0.30;;;12.20;45.40;;;;;;4994486;28;20522;-81
2021/04/06 10:08:12;;;;;;;0.77;0.17;;;12.50;45.20;;;;;;4993195;28;20035;-81
2021/04/06 10:10:46;;;;;;;0.17;0.00;;;12.70;44.90;;;;;;4993395;28;20044;-80
2021/04/06 10:13:12;;;;;;;0.00;0.00;;;13.00;44.70;;;;;;4992169;28;20375;-81
2021/04/06 10:15:38;;;;;;;0.25;0.00;;;13.20;44.40;;;;;;4975877;28;20030;-80
2021/04/06 10:18:13;;;;;;;0.10;0.00;;;13.20;44.20;;;;;;4993773;28;20030;-81
2021/04/06 10:20:43;;;;;;;0.03;0.00;;;13.20;44.10;;;;;;4993098;28;20038;-80
2021/04/06 10:23:10;;;;;;;0.70;0.35;;;12.90;43.80;;;;;;4994285;28;20495;-80
2021/04/06 10:25:38;;;;;;;0.00;0.00;;;12.60;44.00;;;;;;4993918;28;20049;-81
2021/04/06 10:28:05;;;;;;;0.00;0.00;;;12.40;44.40;;;;;;4993142;28;20049;-80
2021/04/06 10:30:55;;;;;;;0.22;0.22;;;12.20;43.90;;;;;;4993636;28;20039;-80
2021/04/06 10:33:26;;;;;;;1.10;0.10;;;12.00;44.00;;;;;;4992955;28;20495;-80
2021/04/06 10:35:57;;;;;;;0.10;0.00;;;11.90;44.10;;;;;;4993959;28;20042;-80
2021/04/06 10:38:26;;;;;;;0.30;0.20;;;11.90;44.10;;;;;;4993985;28;20056;-80
2021/04/06 10:41:00;;;;;;;0.47;0.20;;;11.90;43.90;;;;;;4992106;28;20049;-82
2021/04/06 10:43:26;;;;;;;0.00;0.00;;;11.90;43.60;;;;;;4993253;28;20030;-80
2021/04/06 10:46:08;;;;;;;0.75;0.00;;;12.00;43.60;;;;;;4991645;28;20521;-80
2021/04/06 10:48:35;;;;;;;0.00;0.00;;;12.00;43.20;;;;;;4992786;28;20037;-80
2021/04/06 10:51:09;;;;;;;2.00;0.40;;;12.00;43.20;;;;;;4992631;28;20042;-81
2021/04/06 10:53:49;;;;;;;0.00;0.00;;;12.00;43.00;;;;;;4993895;28;20045;-80
2021/04/06 10:56:25;;;;;;;1.38;0.55;;;12.10;42.90;;;;;;4992391;28;20471;-80
2021/04/06 10:58:54;;;;;;;0.30;0.25;;;12.10;43.00;;;;;;4978929;28;20042;-80
2021/04/06 11:01:39;;;;;;;0.22;0.20;;;12.10;43.10;;;;;;4992527;28;20035;-81
2021/04/06 11:04:16;;;;;;;1.00;0.20;;;12.20;43.20;;;;;;4976967;28;20045;-81
2021/04/06 11:06:48;;;;;;;0.32;0.10;;;12.00;42.80;;;;;;4994006;28;20037;-80
2021/04/06 11:09:19;;;;;;;0.73;0.10;;;11.80;42.50;;;;;;4991930;28;20069;-80
2021/04/06 11:11:46;;;;;;;0.00;0.00;;;11.50;42.90;;;;;;4993553;28;20023;-80
2021/04/06 11:14:14;;;;;;;0.10;0.10;;;11.30;43.00;;;;;;4976292;28;20487;-80
2021/04/06 11:16:40;;;;;;;0.17;0.03;;;11.10;43.10;;;;;;4991297;28;20416;-81
2021/04/06 11:19:09;;;;;;;1.42;0.32;;;10.90;43.00;;;;;;4992849;28;20033;-80
2021/04/06 11:21:38;;;;;;;0.47;0.30;;;10.80;43.10;;;;;;4993396;28;20030;-80
2021/04/06 11:24:05;;;;;;;0.13;0.00;;;10.80;43.20;;;;;;4991780;28;20502;-81
2021/04/06 11:26:31;;;;;;;0.22;0.13;;;10.80;43.10;;;;;;4992020;28;20034;-81
2021/04/06 11:28:57;;;;;;;0.20;0.00;;;10.90;43.20;;;;;;4993235;28;20037;-80
2021/04/06 11:31:24;;;;;;;0.10;0.00;;;11.10;43.00;;;;;;4995860;28;20034;-80
2021/04/06 11:33:50;;;;;;;0.70;0.10;;;11.20;42.60;;;;;;4979856;28;20034;-80
2021/04/06 11:36:16;;;;;;;0.63;0.17;;;11.20;42.60;;;;;;4997158;28;20309;-80
2021/04/06 11:38:42;;;;;;;0.30;0.10;;;11.10;42.40;;;;;;4996667;28;20038;-82
2021/04/06 11:41:08;;;;;;;1.20;0.20;;;11.00;42.60;;;;;;4979948;28;20023;-80
2021/04/06 11:43:34;;;;;;;0.68;0.22;;;10.90;42.70;;;;;;4996046;28;20046;-81
2021/04/06 11:46:01;;;;;;;0.00;0.00;;;10.80;42.90;;;;;;4995706;28;20051;-81
2021/04/06 11:48:27;;;;;;;0.00;0.00;;;10.80;42.90;;;;;;4996950;28;20042;-81
2021/04/06 11:50:53;;;;;;;0.00;0.00;;;10.70;42.80;;;;;;4976398;28;20042;-80
2021/04/06 11:53:19;;;;;;;0.03;0.00;;;10.60;42.80;;;;;;4985669;28;20030;-80
2021/04/06 11:55:45;;;;;;;0.35;0.15;;;10.60;43.10;;;;;;4981281;28;20026;-80
2021/04/06 11:58:11;;;;;;;0.00;0.00;;;10.80;43.00;;;;;;4995862;28;20030;-80
2021/04/06 12:00:37;;;;;;;1.70;0.30;;;11.20;42.60;;;;;;4995138;28;20487;-80
2021/04/06 12:03:04;;;;;;;0.00;0.00;;;11.50;42.10;;;;;;4996648;28;20030;-80
2021/04/06 12:05:30;;;;;;;0.35;0.20;;;11.70;41.90;;;;;;4996622;28;20038;-80
2021/04/06 12:07:56;;;;;;;0.22;0.10;;;11.90;41.40;;;;;;4996628;28;20026;-80
2021/04/06 12:10:22;;;;;;;0.98;0.13;;;11.80;41.30;;;;;;4995739;28;20030;-80
2021/04/06 12:12:48;;;;;;;2.30;0.10;;;11.80;41.50;;;;;;4977460;28;20043;-80
2021/04/06 12:15:15;;;;;;;0.60;0.25;;;11.70;41.60;;;;;;4991222;28;20399;-80
2021/04/06 12:17:41;;;;;;;0.22;0.13;;;11.60;41.70;;;;;;4996429;28;20391;-80
2021/04/06 12:20:07;;;;;;;0.00;0.00;;;11.50;41.50;;;;;;4996490;28;20030;-80
2021/04/06 12:22:34;;;;;;;0.10;0.00;;;11.40;41.40;;;;;;4995983;28;20041;-80
2021/04/06 12:25:01;;;;;;;0.00;0.00;;;11.40;41.50;;;;;;4994266;28;20431;-80
2021/04/06 12:27:27;;;;;;;0.45;0.10;;;11.60;41.30;;;;;;4996192;28;20031;-80
2021/04/06 12:29:53;;;;;;;2.40;0.20;;;11.80;40.80;;;;;;4996161;28;20041;-80
2021/04/06 12:32:19;;;;;;;0.00;0.00;;;11.80;40.40;;;;;;4996023;28;20031;-80
2021/04/06 12:34:45;;;;;;;0.47;0.10;;;11.80;40.10;;;;;;4963420;28;20042;-80
2021/04/06 12:37:11;;;;;;;0.05;0.00;;;11.60;39.70;;;;;;4994947;28;20353;-81
2021/04/06 12:39:37;;;;;;;1.80;0.50;;;11.50;40.20;;;;;;4995398;28;20042;-80
2021/04/06 12:42:04;;;;;;;0.57;0.43;;;11.50;40.30;;;;;;4994715;28;20034;-81
2021/04/06 12:44:30;;;;;;;0.00;0.00;;;11.70;40.20;;;;;;4995817;28;20065;-80
2021/04/06 12:46:56;;;;;;;0.00;0.00;;;12.00;39.80;;;;;;4995777;28;20049;-82
2021/04/06 12:49:23;;;;;;;0.00;0.00;;;12.20;39.30;;;;;;4995049;28;20490;-81
2021/04/06 12:51:49;;;;;;;0.10;0.00;;;12.30;38.40;;;;;;4995746;28;20035;-80
2021/04/06 12:54:15;;;;;;;1.17;0.35;;;12.40;38.00;;;;;;4995744;28;20037;-80
2021/04/06 12:56:41;;;;;;;1.65;0.10;;;12.40;37.90;;;;;;4995504;28;20022;-81
2021/04/06 12:59:07;;;;;;;0.00;0.00;;;12.30;37.40;;;;;;4994531;28;20049;-80
2021/04/06 13:01:33;;;;;;;0.00;0.00;;;12.10;37.60;;;;;;4995213;28;20034;-80
2021/04/06 13:03:59;;;;;;;0.00;0.00;;;12.00;37.50;;;;;;4977645;28;20050;-80
2021/04/06 13:06:25;;;;;;;0.13;0.00;;;11.90;37.60;;;;;;4995080;28;20041;-80
2021/04/06 13:08:51;;;;;;;0.00;0.00;;;11.80;37.70;;;;;;4994318;28;20372;-80
2021/04/06 13:11:17;;;;;;;0.00;0.00;;;11.80;37.70;;;;;;4995475;28;20041;-80